Tuesday, March 3, 2015, 9:47 PM EST
Back to Local

KPTW, Pottstown Limerick Airport

Location: Royersford, PA, United States Lat: 40.233
Local Time: 9:47 PM EST ( 2:47 GMT) Lon: -75.55
Time Zone: US/Eastern Elev: 291 ft

Show me the last for .
Show Decoded

2015-03-03 21:02 METAR KPTW 040202Z AUTO 19006KT 6SM UP BR OVC010 M01/M01 A2995 RMK AO2
                 UPB02FZRAE02 CIG 007V014 P0001 I1000 T10061006 =
2015-03-03 20:40 METAR KPTW 040140Z AUTO 19005KT 5SM FZRA BR OVC010 M01/M01 A2997 RMK AO2 P0008
                 I1006 T10061006 =
2015-03-03 20:17 METAR KPTW 040117Z AUTO 19008KT 5SM FZRA BR OVC009 M01/M01 A2999 RMK AO2 CIG
                 006V014 PRESFR P0005 I1002 T10061011 =
2015-03-03 19:54 METAR KPTW 040054Z AUTO VRB05KT 5SM FZRA BR OVC010 M01/M01 A3001 RMK AO2
                 UPE2358FZRAB2358 SLP163 P0008 I1009 T10061011 =
2015-03-03 19:27 METAR KPTW 040027Z AUTO 18003KT 4SM FZRA BR BKN009 OVC015 M01/M02 A3003 RMK AO2
                 UPE2358FZRAB2358 CIG 006V012 P0004 I1004 T10111017 =
2015-03-03 19:18 METAR KPTW 040018Z AUTO VRB04KT 4SM -FZRA BR BKN009 OVC014 M02/M02 A3004 RMK AO2
                 UPE2358FZRAB2358 CIG 006V012 P0003 I1003 T10171017 =
2015-03-03 19:06 METAR KPTW 040006Z AUTO 15003KT 4SM FZRA BR OVC012 M02/M02 A3004 RMK AO2
                 UPE2358FZRAB2358 P0001 I1001 T10221022 =
2015-03-03 19:02 METAR KPTW 040002Z AUTO VRB04KT 4SM -FZRA BR BKN011 OVC015 M02/M02 A3004 RMK AO2
                 UPE2358FZRAB2358 P0001 I1000 T10221022 =
2015-03-03 18:54 METAR KPTW 032354Z AUTO 00000KT 3SM UP BR FEW008 OVC015 M03/M03 A3004 RMK AO2
                 PRESFR SLP174 P0008 60029 I6003 T10281028 11017 21033 58052 =
2015-03-03 18:51 METAR KPTW 032351Z AUTO VRB04KT 3SM UP BR BKN013 OVC018 M03/M03 A3004 RMK AO2
                 PRESFR P0008 =
2015-03-03 18:29 METAR KPTW 032329Z AUTO 00000KT 2SM UP BR BKN019 BKN026 OVC034 M03/M03 A3008 RMK
                 AO2 P0006 T10281028 =
2015-03-03 18:20 METAR KPTW 032320Z AUTO 00000KT 2SM UP BR SCT021 OVC033 M03/M03 A3010 RMK AO2
                 P0003 T10281033 =
2015-03-03 18:16 METAR KPTW 032316Z AUTO VRB03KT 1 3/4SM UP BR SCT021 OVC033 M03/M03 A3009 RMK
                 AO2 P0003 T10281033 =
2015-03-03 18:06 METAR KPTW 032306Z AUTO VRB04KT 1 3/4SM UP BR BKN018 OVC033 M03/M03 A3009 RMK
                 AO2 PRESFR P0002 T10331033 =
2015-03-03 17:54 METAR KPTW 032254Z AUTO 00000KT 2SM UP BR OVC033 M03/M03 A3012 RMK AO2 SLP201
                 P0006 T10331033 =
2015-03-03 17:35 METAR KPTW 032235Z AUTO VRB03KT 1 1/2SM UP BR OVC037 M03/M04 A3012 RMK AO2 P0003
                 T10331039 =
2015-03-03 17:24 METAR KPTW 032224Z AUTO VRB03KT 2SM UP BR OVC039 M03/M04 A3012 RMK AO2 P0002
                 T10331039 =
2015-03-03 16:54 METAR KPTW 032154Z AUTO VRB03KT 3SM UP BR OVC035 M03/M04 A3016 RMK AO2
                 UPB32FZRAE32 SLP214 P0009 I1001 T10281044 =
2015-03-03 16:38 METAR KPTW 032138Z AUTO 00000KT 3SM UP BR OVC036 M03/M04 A3016 RMK AO2
                 UPB32FZRAE32 P0006 I1001 T10281044 =
2015-03-03 16:17 METAR KPTW 032117Z AUTO VRB03KT 3SM FZRA BR OVC037 M03/M04 A3017 RMK AO2 P0003
                 I1001 T10281044 =
2015-03-03 16:08 METAR KPTW 032108Z AUTO VRB05KT 4SM -FZRA BR OVC038 M03/M05 A3017 RMK AO2 P0001
                 I1001 T10331050 =
2015-03-03 15:54 METAR KPTW 032054Z AUTO VRB03KT 4SM FZRA BR OVC038 M03/M05 A3020 RMK AO2
                 UPE11B28E40FZRAB40SNB11E28 SLP226 P0005 60006 I1002 I3002 T10281050 58036 =
2015-03-03 15:46 METAR KPTW 032046Z AUTO VRB04KT 4SM FZRA BR OVC038 M03/M05 A3020 RMK AO2
                 UPE11B28E40FZRAB40SNB11E28 P0004 I1001 T10281050 =
2015-03-03 14:54 METAR KPTW 031954Z AUTO VRB05KT 7SM UP FEW038 OVC046 M02/M09 A3024 RMK AO2
                 UPE03B41SNB29E41 SLP241 P0001 T10221089 =
2015-03-03 13:54 METAR KPTW 031854Z AUTO 15004KT 10SM UP OVC047 M02/M11 A3028 RMK AO2 UPB51
                 SLP255 P0000 T10171111 =
2015-03-03 12:54 METAR KPTW 031754Z AUTO VRB05KT 10SM BKN050 OVC060 M02/M12 A3030 RMK AO2 SLP262
                 T10171117 11017 21067 58044 =
2015-03-03 11:54 METAR KPTW 031654Z AUTO VRB03KT 10SM BKN070 OVC090 M02/M12 A3037 RMK AO2 SLP287
                 T10221117 =
2015-03-03 10:54 METAR KPTW 031554Z AUTO VRB04KT 10SM OVC100 M03/M12 A3039 RMK AO2 SLP293
                 T10331117 =
2015-03-03 09:54 METAR KPTW 031454Z AUTO 18004KT 10SM CLR M04/M12 A3043 RMK AO2 SLP306 T10391122
                 58002 =
2015-03-03 08:54 METAR KPTW 031354Z AUTO 00000KT 10SM BKN110 M04/M13 A3045 RMK AO2 SLP313
                 T10441128 =
2015-03-03 07:54 METAR KPTW 031254Z AUTO 00000KT 10SM SCT120 M05/M12 A3045 RMK AO2 SLP313
                 T10501122 =
2015-03-03 06:54 METAR KPTW 031154Z AUTO 00000KT 10SM CLR M07/M12 A3044 RMK AO2 SLP308 T10671117
                 11039 21083 51010 $ =
2015-03-03 05:54 METAR KPTW 031054Z AUTO 01003KT 10SM CLR M07/M12 A3044 RMK AO2 SLP308 T10721117
                 $ =
2015-03-03 04:54 METAR KPTW 030954Z AUTO 00000KT 10SM CLR M08/M13 A3043 RMK AO2 SLP307 T10781133
                 $ =
2015-03-03 03:54 METAR KPTW 030854Z AUTO 33004KT 10SM CLR M06/M14 A3041 RMK AO2 SLP298 T10611139
                 50000 $ =
2015-03-03 02:54 METAR KPTW 030754Z AUTO 36008KT 10SM CLR M06/M14 A3041 RMK AO2 SLP300 T10561139
                 $ =
2015-03-03 01:54 METAR KPTW 030654Z AUTO 03007KT 10SM CLR M05/M14 A3042 RMK AO2 SLP303 T10501139
                 $ =
2015-03-03 00:54 METAR KPTW 030554Z AUTO 36005KT 10SM CLR M04/M14 A3041 RMK AO2 SLP298 T10391144
                 11006 21050 51015 $ =
2015-03-02 23:54 METAR KPTW 030454Z AUTO 31003KT 10SM CLR M04/M12 A3039 RMK AO2 SLP292 T10441122
                 400221044 $ =
2015-03-02 22:54 METAR KPTW 030354Z AUTO 30005KT 10SM CLR M03/M11 A3038 RMK AO2 SLP289 T10281111
                 $ =
2015-03-02 21:54 METAR KPTW 030254Z AUTO 30004KT 10SM CLR M03/M11 A3036 RMK AO2 SLP283 T10281111
                 53016 $ =

Support USWX by starting your Amazon purchase here.